createdAt,value
2019-03-13T00:04:52.024Z,81.55
2019-03-13T00:07:20.418Z,81.75
2019-03-13T00:09:48.804Z,82.32
2019-03-13T00:12:17.533Z,82.37
2019-03-13T00:14:45.912Z,82.38
2019-03-13T00:17:14.309Z,81.84
2019-03-13T00:20:01.943Z,82.11
2019-03-13T00:22:30.342Z,82.28
2019-03-13T00:28:11.125Z,82.79
2019-03-13T00:33:26.958Z,83.04
2019-03-13T00:38:42.793Z,82.95
2019-03-13T00:41:11.185Z,82.74
2019-03-13T00:43:58.830Z,83.18
2019-03-13T00:46:27.216Z,82.87
2019-03-13T00:49:14.864Z,82.58
2019-03-13T00:54:30.693Z,82.78
2019-03-13T00:57:38.998Z,83.05
2019-03-13T01:00:47.312Z,83.20
2019-03-13T01:03:34.848Z,83.24
2019-03-13T01:06:22.361Z,83.50
2019-03-13T01:08:50.757Z,83.04
2019-03-13T01:11:38.389Z,83.50
2019-03-13T01:14:06.782Z,83.98
2019-03-13T01:16:54.419Z,83.53
2019-03-13T01:19:22.816Z,83.77
2019-03-13T01:24:40.272Z,83.76
2019-03-13T01:27:27.911Z,83.04
2019-03-13T01:30:15.429Z,83.16
2019-03-13T01:36:11.271Z,83.15
2019-03-13T01:41:13.351Z,82.68
2019-03-13T01:43:41.749Z,83.09
2019-03-13T01:46:29.259Z,82.94
2019-03-13T01:49:16.906Z,82.72
2019-03-13T01:51:45.294Z,82.51
2019-03-13T01:54:13.688Z,82.30
2019-03-13T01:59:50.149Z,82.01
2019-03-13T02:02:37.789Z,81.24
2019-03-13T02:05:46.102Z,80.95
2019-03-13T02:08:33.616Z,80.67
2019-03-13T02:11:21.257Z,80.38
2019-03-13T02:14:08.771Z,80.08
2019-03-13T02:19:24.596Z,80.29
2019-03-13T02:21:52.994Z,80.66
2019-03-13T02:25:01.304Z,80.83
2019-03-13T02:27:29.692Z,80.92
2019-03-13T02:30:17.221Z,80.75
2019-03-13T02:32:45.599Z,80.94
2019-03-13T02:35:14.002Z,80.48
2019-03-13T02:40:29.825Z,80.67
2019-03-13T02:45:47.295Z,80.09
2019-03-13T02:48:15.683Z,80.47
2019-03-13T02:50:44.084Z,79.76
2019-03-13T02:53:12.790Z,79.63
2019-03-13T02:55:41.187Z,79.67
2019-03-13T02:58:09.579Z,79.61
2019-03-13T03:06:11.467Z,78.97
2019-03-13T03:09:19.792Z,78.93
2019-03-13T03:11:48.203Z,79.13
2019-03-13T03:14:56.509Z,78.80
2019-03-13T03:17:24.864Z,78.59
2019-03-13T03:19:53.266Z,78.22
2019-03-13T03:22:21.654Z,78.14
2019-03-13T03:25:09.173Z,78.08
2019-03-13T03:27:56.810Z,77.96
2019-03-13T03:31:05.150Z,77.52
2019-03-13T03:33:52.906Z,77.79
2019-03-13T03:36:21.309Z,77.61
2019-03-13T03:39:08.817Z,77.67
2019-03-13T03:41:56.332Z,77.41
2019-03-13T03:44:43.982Z,77.21
2019-03-13T03:47:12.365Z,77.41
2019-03-13T03:52:28.198Z,77.03
2019-03-13T03:55:15.734Z,77.53
2019-03-13T04:01:11.329Z,77.77
2019-03-13T04:03:58.950Z,77.57
2019-03-13T04:07:07.272Z,77.83
2019-03-13T04:09:35.662Z,77.54
2019-03-13T04:15:17.917Z,77.70
2019-03-13T04:17:46.308Z,77.50
2019-03-13T04:20:54.638Z,78.27
2019-03-13T04:23:23.017Z,78.11
2019-03-13T04:26:12.825Z,77.97
2019-03-13T04:28:40.639Z,78.04
2019-03-13T04:31:09.035Z,78.10
2019-03-13T04:33:37.434Z,77.69
2019-03-13T04:36:25.073Z,77.29
2019-03-13T04:39:12.986Z,77.37
2019-03-13T04:41:41.404Z,77.01
2019-03-13T04:44:09.807Z,77.03
2019-03-13T04:46:38.201Z,77.10
2019-03-13T04:49:06.837Z,76.66
2019-03-13T04:51:35.235Z,76.17
2019-03-13T04:54:43.533Z,75.92
2019-03-13T04:57:11.931Z,75.87
2019-03-13T04:59:40.319Z,76.37
2019-03-13T05:02:27.965Z,76.35
2019-03-13T05:04:56.359Z,75.86
2019-03-13T05:07:44.012Z,75.76
2019-03-13T05:10:31.516Z,75.66
2019-03-13T05:13:19.037Z,75.38
2019-03-13T05:15:47.439Z,75.52
2019-03-13T05:21:03.269Z,75.45
2019-03-13T05:23:50.927Z,75.90
2019-03-13T05:26:19.338Z,76.09
2019-03-13T05:28:47.721Z,75.83
2019-03-13T05:31:16.124Z,75.33
2019-03-13T05:33:44.548Z,75.41
2019-03-13T05:36:16.309Z,75.10
2019-03-13T05:38:43.092Z,74.82
2019-03-13T05:44:04.430Z,74.13
2019-03-13T05:46:32.862Z,74.77
2019-03-13T05:49:01.311Z,75.06
2019-03-13T05:51:29.744Z,74.72
2019-03-13T05:53:58.154Z,74.41
2019-03-13T05:56:26.569Z,74.99
2019-03-13T05:58:54.966Z,74.85
2019-03-13T06:01:23.398Z,74.81
2019-03-13T06:03:51.818Z,74.46
2019-03-13T06:06:20.249Z,74.84
2019-03-13T06:08:48.660Z,74.50
2019-03-13T06:11:17.089Z,74.26
2019-03-13T06:13:47.352Z,74.35
2019-03-13T06:16:15.742Z,74.21
2019-03-13T06:24:24.282Z,73.77
2019-03-13T06:27:11.967Z,73.60
2019-03-13T06:29:59.647Z,73.54
2019-03-13T06:32:28.085Z,73.55
2019-03-13T06:40:37.147Z,73.39
2019-03-13T06:43:05.544Z,73.24
2019-03-13T06:45:53.183Z,73.73
2019-03-13T06:48:21.589Z,73.44
2019-03-13T06:50:50.236Z,73.36
2019-03-13T06:53:37.886Z,72.77
2019-03-13T06:56:25.395Z,72.78
2019-03-13T07:01:51.559Z,72.93
2019-03-13T07:04:39.073Z,72.57
2019-03-13T07:12:56.993Z,72.13
2019-03-13T07:15:44.489Z,72.51
2019-03-13T07:18:32.012Z,72.47
2019-03-13T07:21:19.513Z,72.53
2019-03-13T07:24:07.030Z,71.84
2019-03-13T07:26:54.534Z,71.79
2019-03-13T07:29:42.053Z,71.77
2019-03-13T07:32:29.567Z,71.73
2019-03-13T07:35:17.080Z,71.71
2019-03-13T07:38:23.861Z,72.17
2019-03-13T07:41:30.643Z,71.79
2019-03-13T07:44:18.150Z,71.81
2019-03-13T07:47:05.659Z,72.06
2019-03-13T07:55:47.518Z,71.24
2019-03-13T07:58:35.046Z,71.37
2019-03-13T08:01:41.813Z,70.94
2019-03-13T08:07:08.312Z,71.23
2019-03-13T08:09:55.857Z,71.96
2019-03-13T08:12:43.350Z,71.99
2019-03-13T08:15:51.668Z,72.60
2019-03-13T08:18:39.173Z,73.36
2019-03-13T08:21:45.934Z,72.72
2019-03-13T08:24:33.450Z,72.70
2019-03-13T08:27:20.960Z,72.20
2019-03-13T08:30:08.478Z,72.04
2019-03-13T08:33:15.254Z,71.95
2019-03-13T08:36:03.016Z,71.93
2019-03-13T08:38:50.540Z,71.54
2019-03-13T08:41:38.060Z,71.60
2019-03-13T08:44:25.577Z,71.70
2019-03-13T08:47:13.329Z,72.28
2019-03-13T08:50:20.105Z,72.21
2019-03-13T08:56:02.259Z,72.69
2019-03-13T08:58:49.780Z,72.86
2019-03-13T09:01:37.289Z,72.60
2019-03-13T09:04:24.811Z,72.48
2019-03-13T09:13:18.909Z,72.42
2019-03-13T09:16:06.422Z,72.33
2019-03-13T09:18:53.933Z,71.99
2019-03-13T09:24:30.530Z,72.59
2019-03-13T09:27:18.040Z,72.36
2019-03-13T09:33:00.062Z,72.84
2019-03-13T09:38:42.177Z,72.69
2019-03-13T09:44:18.776Z,72.82
2019-03-13T09:47:06.283Z,72.80
2019-03-13T09:49:53.806Z,73.12
2019-03-13T09:52:41.318Z,73.38
2019-03-13T09:55:49.632Z,72.66
2019-03-13T09:58:37.149Z,72.05
2019-03-13T10:03:59.898Z,72.70
2019-03-13T10:06:47.396Z,72.65
2019-03-13T10:09:34.920Z,72.73
2019-03-13T10:12:41.666Z,72.80
2019-03-13T10:15:49.981Z,72.77
2019-03-13T10:18:56.748Z,72.67
2019-03-13T10:21:44.261Z,72.76
2019-03-13T10:27:10.766Z,73.82
2019-03-13T10:29:58.288Z,73.71
2019-03-13T10:35:34.882Z,74.86
2019-03-13T10:38:22.625Z,75.40
2019-03-13T10:43:45.615Z,75.87
2019-03-13T10:49:11.772Z,76.22
2019-03-13T10:51:59.290Z,76.28
2019-03-13T11:00:11.429Z,74.53
2019-03-13T11:02:58.951Z,74.71
2019-03-13T11:06:05.774Z,73.82
2019-03-13T11:08:53.385Z,74.79
2019-03-13T11:11:40.922Z,75.27
2019-03-13T11:14:28.448Z,75.82
2019-03-13T11:17:15.992Z,77.79
2019-03-13T11:20:22.825Z,78.46
2019-03-13T11:26:18.693Z,78.15
2019-03-13T11:31:55.352Z,76.27
2019-03-13T11:35:02.123Z,76.17
2019-03-13T11:37:49.634Z,76.30
2019-03-13T11:40:37.149Z,75.69
2019-03-13T11:51:43.640Z,74.63
2019-03-13T11:54:31.493Z,73.88
2019-03-13T11:57:19.071Z,74.90
2019-03-13T12:00:06.651Z,74.60
2019-03-13T12:02:54.251Z,74.48
2019-03-13T12:05:41.830Z,75.12
2019-03-13T12:08:29.374Z,75.79
2019-03-13T12:11:16.937Z,76.84
2019-03-13T12:19:48.715Z,78.72
2019-03-13T12:22:55.522Z,78.06
2019-03-13T12:28:32.137Z,78.99
2019-03-13T12:34:14.279Z,79.66
2019-03-13T12:37:21.236Z,79.77
2019-03-13T12:40:08.774Z,79.36
2019-03-13T12:43:15.558Z,79.59
2019-03-13T12:51:46.533Z,81.31
2019-03-13T12:57:23.207Z,81.28
2019-03-13T13:00:10.795Z,81.27
2019-03-13T13:02:58.311Z,80.98
2019-03-13T13:11:14.684Z,80.64
2019-03-13T13:14:21.524Z,81.32
2019-03-13T13:17:09.119Z,81.97
2019-03-13T13:19:37.554Z,80.44
2019-03-13T13:22:05.961Z,80.29
2019-03-13T13:24:53.855Z,80.55
2019-03-13T13:27:41.667Z,80.71
2019-03-13T13:30:50.047Z,81.53
2019-03-13T13:33:18.466Z,81.66
2019-03-13T13:35:46.935Z,82.34
2019-03-13T13:38:15.380Z,83.84
2019-03-13T13:41:03.066Z,84.28
2019-03-13T13:43:31.547Z,84.63
2019-03-13T13:46:39.926Z,85.29
2019-03-13T13:49:08.318Z,85.94
2019-03-13T13:51:36.762Z,85.22
2019-03-13T13:54:24.647Z,85.64
2019-03-13T13:56:53.097Z,85.71
2019-03-13T13:59:40.778Z,84.86
2019-03-13T14:04:43.175Z,85.13
2019-03-13T14:07:30.842Z,85.56
2019-03-13T14:09:59.256Z,85.71
2019-03-13T14:12:47.012Z,86.37
2019-03-13T14:15:55.379Z,85.32
2019-03-13T14:18:23.784Z,86.34
2019-03-13T14:21:11.442Z,87.58
2019-03-13T14:23:39.863Z,88.24
2019-03-13T14:26:08.276Z,88.41
2019-03-13T14:29:16.590Z,88.78
2019-03-13T14:31:44.977Z,88.72
2019-03-13T14:36:47.280Z,89.45
2019-03-13T14:39:34.803Z,88.59
2019-03-13T14:42:03.190Z,87.87
2019-03-13T14:47:05.272Z,86.00
2019-03-13T14:49:41.018Z,86.19
2019-03-13T14:54:56.874Z,86.34
2019-03-13T14:57:25.303Z,86.31
2019-03-13T14:59:53.737Z,86.26
2019-03-13T15:02:22.140Z,86.00
2019-03-13T15:05:10.038Z,85.95
2019-03-13T15:07:57.562Z,85.55
2019-03-13T15:10:25.955Z,86.25
2019-03-13T15:13:13.472Z,87.02
2019-03-13T15:15:41.867Z,86.57
2019-03-13T15:18:10.269Z,86.99
2019-03-13T15:20:38.692Z,86.63
2019-03-13T15:23:26.351Z,86.55
2019-03-13T15:26:13.902Z,87.57
2019-03-13T15:28:42.301Z,87.72
2019-03-13T15:36:52.286Z,88.63
2019-03-13T15:39:20.724Z,88.68
2019-03-13T15:41:49.114Z,88.63
2019-03-13T15:44:17.517Z,89.08
2019-03-13T15:46:45.909Z,88.91
2019-03-13T15:49:14.304Z,89.04
2019-03-13T15:51:42.807Z,89.31
2019-03-13T15:54:11.200Z,89.69
2019-03-13T15:56:39.603Z,90.43
2019-03-13T15:59:07.995Z,91.05
2019-03-13T16:01:36.394Z,90.89
2019-03-13T16:04:05.173Z,90.38
2019-03-13T16:06:33.565Z,89.97
2019-03-13T16:09:01.972Z,89.61
2019-03-13T16:11:30.357Z,89.55
2019-03-13T16:13:58.755Z,89.54
2019-03-13T16:16:27.264Z,89.68
2019-03-13T16:18:55.596Z,90.30
2019-03-13T16:21:23.988Z,90.96
2019-03-13T16:23:52.574Z,91.23
2019-03-13T16:26:20.967Z,90.82
2019-03-13T16:28:49.372Z,91.50
2019-03-13T16:31:17.755Z,91.19
2019-03-13T16:33:46.163Z,91.60
2019-03-13T16:36:14.550Z,92.55
2019-03-13T16:38:42.948Z,92.91
2019-03-13T16:41:11.333Z,92.80
2019-03-13T16:43:39.728Z,91.85
2019-03-13T16:46:08.126Z,92.25
2019-03-13T16:48:36.517Z,92.46
2019-03-13T16:51:05.023Z,92.27
2019-03-13T16:53:33.470Z,92.85
2019-03-13T16:56:01.898Z,92.60
2019-03-13T16:58:30.283Z,92.00
2019-03-13T17:00:58.680Z,91.94
2019-03-13T17:03:27.069Z,92.04
2019-03-13T17:05:55.465Z,92.37
2019-03-13T17:08:23.856Z,92.43
2019-03-13T17:10:52.354Z,91.87
2019-03-13T17:13:20.741Z,92.26
2019-03-13T17:15:49.139Z,92.11
2019-03-13T17:18:17.527Z,91.95
2019-03-13T17:20:46.069Z,92.39
2019-03-13T17:23:14.459Z,93.22
2019-03-13T17:25:42.856Z,93.26
2019-03-13T17:28:11.240Z,93.57
2019-03-13T17:30:39.713Z,94.06
2019-03-13T17:33:08.100Z,93.90
2019-03-13T17:35:36.505Z,93.77
2019-03-13T17:38:04.895Z,93.36
2019-03-13T17:40:34.200Z,93.29
2019-03-13T17:43:02.963Z,93.16
2019-03-13T17:45:31.358Z,92.96
2019-03-13T17:47:59.817Z,92.62
2019-03-13T17:50:28.385Z,92.37
2019-03-13T17:52:57.114Z,92.29
2019-03-13T17:55:26.655Z,92.42
2019-03-13T17:57:55.046Z,92.24
2019-03-13T18:00:27.597Z,92.35
2019-03-13T18:02:56.003Z,92.88
2019-03-13T18:05:24.546Z,93.19
2019-03-13T18:07:53.012Z,93.59
2019-03-13T18:10:21.712Z,94.18
2019-03-13T18:12:50.057Z,94.69
2019-03-13T18:15:18.861Z,94.55
2019-03-13T18:17:47.258Z,94.72
2019-03-13T18:20:25.130Z,95.13
2019-03-13T18:22:53.516Z,95.28
2019-03-13T18:25:21.918Z,95.74
2019-03-13T18:27:50.318Z,96.03
2019-03-13T18:30:23.426Z,96.33
2019-03-13T18:32:51.889Z,96.19
2019-03-13T18:35:20.761Z,96.24
2019-03-13T18:37:49.326Z,95.94
2019-03-13T18:40:19.999Z,95.89
2019-03-13T18:42:48.458Z,95.51
2019-03-13T18:45:19.467Z,95.48
2019-03-13T18:47:47.855Z,95.40
2019-03-13T18:50:17.191Z,95.54
2019-03-13T18:52:45.769Z,94.87
2019-03-13T18:55:16.582Z,95.52
2019-03-13T18:57:44.981Z,95.89
2019-03-13T19:00:22.353Z,95.71
2019-03-13T19:02:50.772Z,95.93
2019-03-13T19:05:19.249Z,95.62
2019-03-13T19:07:47.673Z,95.34
2019-03-13T19:10:19.176Z,95.26
2019-03-13T19:12:47.560Z,95.50
2019-03-13T19:15:20.891Z,96.04
2019-03-13T19:17:49.282Z,96.24
2019-03-13T19:20:28.273Z,96.59
2019-03-13T19:22:56.659Z,96.21
2019-03-13T19:25:25.126Z,96.37
2019-03-13T19:27:53.519Z,96.27
2019-03-13T19:30:23.458Z,95.81
2019-03-13T19:32:51.955Z,95.71
2019-03-13T19:35:20.350Z,95.74
2019-03-13T19:37:48.761Z,95.79
2019-03-13T19:40:20.192Z,96.00
2019-03-13T19:42:48.673Z,96.17
2019-03-13T19:45:28.627Z,96.08
2019-03-13T19:47:57.014Z,96.25
2019-03-13T19:50:27.992Z,96.10
2019-03-13T19:52:55.527Z,96.45
2019-03-13T19:55:23.917Z,96.82
2019-03-13T19:57:52.321Z,96.74
2019-03-13T20:00:23.993Z,96.62
2019-03-13T20:03:00.014Z,96.55
2019-03-13T20:05:22.690Z,96.58
2019-03-13T20:07:51.239Z,96.98
2019-03-13T20:10:22.225Z,96.92
2019-03-13T20:12:50.639Z,96.64
2019-03-13T20:15:21.510Z,96.60
2019-03-13T20:17:49.920Z,96.51
2019-03-13T20:20:20.246Z,96.11
2019-03-13T20:22:50.463Z,95.87
2019-03-13T20:25:18.930Z,96.15
2019-03-13T20:27:47.331Z,96.35
2019-03-13T20:30:20.694Z,96.36
2019-03-13T20:32:49.093Z,96.09
2019-03-13T20:35:17.487Z,95.87
2019-03-13T20:37:45.998Z,95.95
2019-03-13T20:40:22.368Z,95.75
2019-03-13T20:42:50.834Z,95.91
2019-03-13T20:45:27.970Z,96.14
2019-03-13T20:47:56.362Z,96.28
2019-03-13T20:50:36.097Z,96.90
2019-03-13T20:52:54.947Z,97.20
2019-03-13T20:55:23.985Z,97.62
2019-03-13T20:57:52.389Z,97.56
2019-03-13T21:00:22.699Z,97.58
2019-03-13T21:02:51.939Z,97.18
2019-03-13T21:05:20.408Z,97.13
2019-03-13T21:07:48.817Z,97.11
2019-03-13T21:10:17.279Z,97.23
2019-03-13T21:12:45.680Z,96.98
2019-03-13T21:15:22.873Z,97.23
2019-03-13T21:17:51.271Z,96.84
2019-03-13T21:20:20.592Z,95.89
2019-03-13T21:22:48.999Z,95.20
2019-03-13T21:25:22.707Z,95.20
2019-03-13T21:27:51.115Z,94.73
2019-03-13T21:30:24.804Z,93.76
2019-03-13T21:32:53.167Z,93.58
2019-03-13T21:35:22.003Z,92.88
2019-03-13T21:37:50.457Z,92.88
2019-03-13T21:41:16.577Z,92.95
2019-03-13T21:43:44.988Z,92.88
2019-03-13T21:46:13.409Z,92.76
2019-03-13T21:49:01.035Z,92.77
2019-03-13T21:51:29.446Z,92.08
2019-03-13T21:53:57.857Z,92.31
2019-03-13T21:59:13.776Z,92.96
2019-03-13T22:01:42.166Z,93.58
2019-03-13T22:04:23.253Z,94.31
2019-03-13T22:06:40.724Z,95.00
2019-03-13T22:09:28.472Z,94.69
2019-03-13T22:11:56.876Z,94.24
2019-03-13T22:14:25.274Z,94.10
2019-03-13T22:16:53.677Z,94.57
2019-03-13T22:19:22.076Z,94.84
2019-03-13T22:21:50.473Z,94.74
2019-03-13T22:24:38.211Z,95.16
2019-03-13T22:29:54.060Z,94.73
2019-03-13T22:32:41.721Z,95.38
2019-03-13T22:35:10.113Z,93.32
2019-03-13T22:40:52.312Z,93.13
2019-03-13T22:43:39.983Z,93.54
2019-03-13T22:46:08.358Z,93.63
2019-03-13T22:48:36.754Z,94.08
2019-03-13T22:51:05.152Z,94.34
2019-03-13T22:53:33.582Z,95.03
2019-03-13T22:56:01.977Z,94.73
2019-03-13T23:01:43.975Z,94.65
2019-03-13T23:04:12.393Z,94.85
2019-03-13T23:06:40.785Z,94.65
2019-03-13T23:09:11.794Z,94.76
2019-03-13T23:11:40.632Z,94.06
2019-03-13T23:14:09.027Z,93.57
2019-03-13T23:16:37.422Z,93.59
2019-03-13T23:19:05.818Z,93.31
2019-03-13T23:21:34.214Z,93.15
2019-03-13T23:24:02.614Z,92.67
2019-03-13T23:26:31.003Z,92.40
2019-03-13T23:28:59.408Z,92.14
2019-03-13T23:31:27.808Z,91.45
2019-03-13T23:33:56.211Z,91.52
2019-03-13T23:36:24.608Z,90.71
2019-03-13T23:38:53.132Z,90.56
2019-03-13T23:41:21.485Z,90.37
2019-03-13T23:43:49.879Z,90.18
2019-03-13T23:46:18.281Z,90.87
2019-03-13T23:48:46.684Z,91.12
2019-03-13T23:51:15.141Z,91.44
2019-03-13T23:53:43.530Z,91.41
2019-03-13T23:56:11.998Z,90.93
2019-03-13T23:58:40.393Z,91.03
